KCTY/CTY METAR and TAF weather

Enter ICAO airport designator
Station Type Date Time Source
KCTY METAR 2021/09/10 14:55 UTC NOAA

KCTY 101455Z AUTO 10004KT 10SM CLR 27/22 A3002 RMK AO2 T02680216


Station Type Date Time Source
KCTY Decoded METAR 2021/09/10 14:55 UTC NOAA

CROSS CITY AIRPORT, FL, United States (KCTY) 29-38N 083-06W 12M
Sep 10, 2021 - 10:55 AM EDT / 2021.09.10 1455 UTC
Wind: from the E (100 degrees) at 5 MPH (4 KT):0
Visibility: 10 mile(s):0
Sky conditions: clear
Temperature: 80.2 F (26.8 C)
Dew Point: 70.9 F (21.6 C)
Relative Humidity: 73%
Pressure (altimeter): 30.02 in. Hg (1016 hPa)
ob: KCTY 101455Z AUTO 10004KT 10SM CLR 27/22 A3002 RMK AO2 T02680216
cycle: 15

Station Type Date Time Source
KCTY TAF UTC NOAA

Error!

Example: see airport list